Time;durP1;ratioP1;P1;durP2;ratioP2;P2;SDS_P1;SDS_P2;PMS_P1;PMS_P2;Temp;Humidity;BMP_temperature;BMP_pressure;BME280_temperature;BME280_humidity;BME280_pressure;Samples;Min_cycle;Max_cycle;Signal;HPM_P1;HPM_P2
2023/03/17 00:01:52;;;;;;;;;;;9.20;45.60;;;7.72;50.77;101491.81;12259113;19;20047;-83
2023/03/17 00:05:55;;;;;;;;;;;9.30;45.50;;;7.53;50.80;101465.53;12246130;19;19923;-82
2023/03/17 00:13:55;;;;;;;;;;;9.20;45.20;;;7.68;50.60;101503.19;12114490;19;4024947;-83
2023/03/17 00:17:57;;;;;;;;;;;9.20;45.30;;;7.58;50.69;101487.91;12321121;19;19974;-83
2023/03/17 00:21:59;;;;;;;;;;;9.20;45.20;;;7.62;50.70;101487.78;12321771;19;19984;-84
2023/03/17 00:26:01;;;;;;;;;;;9.20;45.00;;;7.58;50.64;101477.50;12322944;19;19933;-84
2023/03/17 00:30:04;;;;;;;;;;;9.00;45.30;;;7.53;50.58;101462.06;12320682;19;19936;-83
2023/03/17 00:34:06;;;;;;;;;;;9.10;45.30;;;7.54;50.71;101477.59;12322076;19;19922;-83
2023/03/17 00:38:16;;;;;;;;;;;9.00;45.50;;;7.42;50.66;101451.97;12320939;19;19918;-83
2023/03/17 00:42:18;;;;;;;;;;;9.00;45.50;;;7.22;50.73;101416.22;12321193;19;19919;-83
2023/03/17 00:46:34;;;;;;;;;;;9.00;45.30;;;7.32;50.64;101441.03;12322711;19;20248;-83
2023/03/17 00:50:35;;;;;;;;;;;9.00;45.70;;;7.37;50.56;101432.22;12320595;19;20308;-83
2023/03/17 00:54:37;;;;;;;;;;;8.90;45.60;;;7.31;50.58;101423.72;12320073;19;19954;-83
2023/03/17 00:58:39;;;;;;;;;;;8.90;45.70;;;7.28;50.60;101418.63;12318456;19;19914;-84
2023/03/17 01:02:40;;;;;;;;;;;8.90;45.60;;;7.03;50.46;101368.34;12322290;19;20378;-82
2023/03/17 01:06:42;;;;;;;;;;;8.80;45.70;;;7.29;50.62;101411.69;12322699;19;19941;-83
2023/03/17 01:10:44;;;;;;;;;;;8.80;45.50;;;7.24;50.67;101411.00;12326987;19;19914;-83
2023/03/17 01:14:47;;;;;;;;;;;8.80;45.70;;;6.90;50.67;101362.66;12328414;19;19922;-83
2023/03/17 01:18:48;;;;;;;;;;;8.80;45.50;;;7.15;50.47;101408.66;12321173;19;19918;-83
2023/03/17 01:22:50;;;;;;;;;;;8.70;45.80;;;6.89;50.55;101368.75;12303178;19;19941;-82
2023/03/17 01:26:52;;;;;;;;;;;8.60;46.00;;;7.16;50.52;101408.63;12269008;19;19911;-82
2023/03/17 01:30:53;;;;;;;;;;;8.60;45.90;;;6.95;50.68;101371.16;12274626;19;19914;-83
2023/03/17 01:34:55;;;;;;;;;;;8.60;45.90;;;6.98;50.52;101368.47;12273327;19;19919;-82
2023/03/17 01:38:58;;;;;;;;;;;8.60;45.80;;;6.99;50.42;101372.75;12274533;19;19917;-82
2023/03/17 01:43:09;;;;;;;;;;;8.60;46.00;;;7.07;50.52;101391.56;12271419;19;19934;-82
2023/03/17 01:47:11;;;;;;;;;;;8.50;45.80;;;6.90;50.75;101360.06;12269807;19;19926;-82
2023/03/17 01:51:43;;;;;;;;;;;8.50;45.60;;;6.91;50.72;101364.34;12268490;19;19911;-83
2023/03/17 01:55:45;;;;;;;;;;;8.50;45.80;;;6.91;50.68;101356.56;12265604;19;20257;-82
2023/03/17 01:59:54;;;;;;;;;;;8.50;45.80;;;6.96;50.50;101361.63;12269336;19;19974;-82
2023/03/17 02:03:56;;;;;;;;;;;8.50;45.90;;;6.90;50.75;101359.22;12268169;19;20586;-82
2023/03/17 02:07:58;;;;;;;;;;;8.50;46.00;;;6.97;50.80;101359.00;12259631;19;19927;-82
2023/03/17 02:12:04;;;;;;;;;;;8.50;45.80;;;6.80;50.72;101327.47;12267477;19;19934;-83
2023/03/17 02:16:05;;;;;;;;;;;8.50;46.10;;;6.97;50.60;101350.34;12263835;19;19931;-83
2023/03/17 02:20:16;;;;;;;;;;;8.40;46.60;;;6.98;50.84;101365.03;12268611;19;20548;-83
2023/03/17 02:24:51;;;;;;;;;;;8.50;46.00;;;6.94;50.73;101346.09;12270603;19;19958;-82
2023/03/17 02:28:52;;;;;;;;;;;8.40;45.90;;;6.93;50.61;101335.75;12269494;19;19947;-83
2023/03/17 02:32:54;;;;;;;;;;;8.40;45.90;;;6.85;50.74;101317.81;12265041;19;19935;-82
2023/03/17 02:36:57;;;;;;;;;;;8.40;46.20;;;6.95;50.80;101334.81;12264166;19;20285;-83
2023/03/17 02:40:58;;;;;;;;;;;8.40;46.20;;;6.94;50.71;101325.31;12270946;19;19945;-83
2023/03/17 02:45:01;;;;;;;;;;;8.40;45.90;;;6.82;50.67;101307.50;12265673;19;19915;-82
2023/03/17 02:49:03;;;;;;;;;;;8.40;46.00;;;6.86;50.65;101322.13;12268384;19;19923;-82
2023/03/17 02:53:06;;;;;;;;;;;8.50;46.20;;;6.92;50.75;101342.69;12262737;19;20237;-83
2023/03/17 02:57:08;;;;;;;;;;;8.40;46.10;;;6.84;50.71;101322.16;12269000;19;19927;-82
2023/03/17 03:01:10;;;;;;;;;;;8.40;46.10;;;6.77;50.53;101312.84;12271298;19;19931;-82
2023/03/17 03:05:12;;;;;;;;;;;8.40;46.20;;;6.87;50.55;101322.06;12270683;19;19922;-83
2023/03/17 03:09:16;;;;;;;;;;;8.40;46.10;;;6.74;50.56;101302.56;12274024;19;19965;-83
2023/03/17 03:13:18;;;;;;;;;;;8.40;46.00;;;6.82;50.61;101326.53;12274157;19;19911;-83
2023/03/17 03:17:20;;;;;;;;;;;8.40;46.10;;;6.80;50.80;101319.69;12278490;19;19910;-83
2023/03/17 03:21:22;;;;;;;;;;;8.30;45.90;;;6.76;50.54;101311.16;12297056;19;19919;-83
2023/03/17 03:25:24;;;;;;;;;;;8.30;45.60;;;6.65;50.55;101303.69;12306421;19;19918;-83
2023/03/17 03:29:26;;;;;;;;;;;8.30;45.90;;;6.60;50.56;101283.94;12308454;19;19934;-82
2023/03/17 03:33:27;;;;;;;;;;;8.30;45.90;;;6.74;50.58;101318.13;12305409;19;19907;-84
2023/03/17 03:37:29;;;;;;;;;;;8.30;46.10;;;6.48;50.81;101274.78;12301932;19;19910;-83
2023/03/17 03:41:30;;;;;;;;;;;8.50;45.90;;;6.47;50.48;101280.03;12296289;19;19927;-83
2023/03/17 03:45:32;;;;;;;;;;;8.30;45.80;;;6.77;50.72;101338.78;12285161;19;19936;-84
2023/03/17 03:49:33;;;;;;;;;;;8.30;46.00;;;6.69;50.52;101316.56;12284784;19;19926;-83
2023/03/17 03:53:35;;;;;;;;;;;8.50;45.90;;;6.76;50.78;101321.53;12283411;19;19923;-83
2023/03/17 03:57:37;;;;;;;;;;;8.30;46.10;;;6.79;50.58;101318.00;12275454;19;19920;-84
2023/03/17 04:01:39;;;;;;;;;;;8.30;45.90;;;6.62;50.78;101295.16;12281050;19;19917;-83
2023/03/17 04:05:40;;;;;;;;;;;8.30;46.00;;;6.56;50.54;101283.22;12280739;19;19923;-84
2023/03/17 04:09:42;;;;;;;;;;;8.30;45.70;;;6.42;50.86;101261.97;12282894;19;19915;-83
2023/03/17 04:13:44;;;;;;;;;;;8.30;46.00;;;6.65;50.71;101302.84;12278635;19;20353;-83
2023/03/17 04:17:45;;;;;;;;;;;8.20;45.60;;;6.63;50.62;101300.28;12279464;19;19929;-83
2023/03/17 04:21:47;;;;;;;;;;;8.20;45.30;;;6.64;50.52;101298.53;12278152;19;19923;-83
2023/03/17 04:25:51;;;;;;;;;;;8.30;45.10;;;6.69;50.69;101303.59;12277150;19;19919;-83
2023/03/17 04:29:52;;;;;;;;;;;8.20;44.80;;;6.67;50.70;101310.56;12281117;19;19919;-83
2023/03/17 04:33:54;;;;;;;;;;;8.20;45.10;;;6.58;50.50;101286.59;12276753;19;19914;-83
2023/03/17 04:37:56;;;;;;;;;;;8.20;45.60;;;6.56;50.74;101279.75;12277221;19;20240;-84
2023/03/17 04:41:57;;;;;;;;;;;8.20;45.90;;;6.64;50.61;101291.63;12278942;19;19919;-83
2023/03/17 04:45:59;;;;;;;;;;;8.10;45.90;;;6.57;50.64;101274.50;12276111;19;19915;-83
2023/03/17 04:50:00;;;;;;;;;;;8.10;46.30;;;6.57;50.51;101287.50;12274016;19;19917;-83
2023/03/17 04:54:03;;;;;;;;;;;8.10;46.00;;;6.53;50.53;101283.28;12276413;19;19962;-83
2023/03/17 04:58:05;;;;;;;;;;;8.00;45.80;;;6.27;50.50;101250.31;12274056;19;19910;-83
2023/03/17 05:02:07;;;;;;;;;;;8.00;46.00;;;6.52;50.72;101301.50;12288115;19;19924;-83
2023/03/17 05:06:08;;;;;;;;;;;8.00;46.00;;;6.47;50.76;101290.41;12284134;19;19923;-83
2023/03/17 05:10:11;;;;;;;;;;;8.00;45.50;;;6.35;50.43;101274.28;12285284;19;19947;-82
2023/03/17 05:14:12;;;;;;;;;;;8.00;46.00;;;6.48;50.69;101299.88;12285421;19;19921;-83
2023/03/17 05:18:15;;;;;;;;;;;8.00;46.10;;;6.34;50.66;101276.91;12280563;19;19995;-83
2023/03/17 05:22:16;;;;;;;;;;;7.90;46.10;;;6.47;50.53;101298.19;12284463;19;19915;-83
2023/03/17 05:26:18;;;;;;;;;;;7.90;46.00;;;6.45;50.61;101292.19;12282737;19;20272;-83
2023/03/17 05:30:20;;;;;;;;;;;7.90;46.10;;;6.39;50.57;101259.47;12282773;19;19947;-83
2023/03/17 05:34:21;;;;;;;;;;;8.00;46.20;;;5.94;50.58;101197.66;12279996;19;19919;-83
2023/03/17 05:38:23;;;;;;;;;;;7.90;46.00;;;6.20;50.52;101260.00;12277734;19;20427;-83
2023/03/17 05:42:26;;;;;;;;;;;7.90;46.00;;;6.23;50.68;101256.47;12279070;19;20268;-83
2023/03/17 05:46:27;;;;;;;;;;;7.80;45.70;;;6.29;50.44;101263.22;12274692;19;20364;-82
2023/03/17 05:50:29;;;;;;;;;;;7.80;46.00;;;6.28;50.65;101264.97;12275914;19;19918;-83
2023/03/17 05:54:30;;;;;;;;;;;7.80;46.00;;;6.31;50.44;101275.25;12280797;19;19933;-84
2023/03/17 05:58:32;;;;;;;;;;;7.90;46.00;;;6.21;50.59;101268.63;12272216;19;20375;-83
2023/03/17 06:02:34;;;;;;;;;;;7.80;46.10;;;6.34;50.72;101282.09;12277510;19;20608;-83
2023/03/17 06:06:36;;;;;;;;;;;7.90;46.10;;;6.39;50.57;101293.22;12270935;19;19930;-83
2023/03/17 06:10:37;;;;;;;;;;;7.90;46.10;;;6.39;50.51;101290.63;12271583;19;19915;-83
2023/03/17 06:14:39;;;;;;;;;;;7.90;45.70;;;6.37;50.60;101288.09;12275317;19;19907;-84
2023/03/17 06:18:41;;;;;;;;;;;8.20;46.20;;;6.45;50.62;101282.66;12270648;19;19915;-83
2023/03/17 06:22:43;;;;;;;;;;;8.00;46.10;;;6.14;50.71;101220.44;12274103;19;19911;-83
2023/03/17 06:26:45;;;;;;;;;;;8.00;46.20;;;6.42;50.76;101265.41;12269702;19;19919;-84
2023/03/17 06:30:46;;;;;;;;;;;8.00;45.90;;;6.47;50.79;101262.69;12271039;19;19915;-83
2023/03/17 06:34:48;;;;;;;;;;;8.00;46.10;;;6.29;50.76;101229.50;12270094;19;19922;-83
2023/03/17 06:38:50;;;;;;;;;;;8.10;46.50;;;6.61;50.56;101291.69;12271990;19;20616;-83
2023/03/17 06:42:52;;;;;;;;;;;8.30;46.50;;;6.63;50.77;101297.69;12272528;19;19970;-84
2023/03/17 06:46:54;;;;;;;;;;;8.20;46.10;;;6.65;50.63;101293.31;12271575;19;20565;-83
2023/03/17 06:50:56;;;;;;;;;;;8.20;46.10;;;6.71;50.76;101297.47;12272901;19;19919;-83
2023/03/17 06:54:58;;;;;;;;;;;8.20;46.20;;;6.40;50.77;101241.28;12272215;19;19911;-84
2023/03/17 06:58:59;;;;;;;;;;;8.30;46.20;;;6.78;50.64;101282.56;12271415;19;19923;-83
2023/03/17 07:03:03;;;;;;;;;;;8.30;46.10;;;6.81;50.76;101267.72;12271236;19;19923;-82
2023/03/17 07:07:05;;;;;;;;;;;8.30;45.60;;;6.68;50.79;101239.63;12269182;19;19927;-83
2023/03/17 07:11:07;;;;;;;;;;;8.40;45.60;;;6.83;50.62;101252.97;12271611;19;19928;-83
2023/03/17 07:15:11;;;;;;;;;;;8.60;45.90;;;6.79;50.81;101253.94;12269236;19;21311;-84
2023/03/17 07:19:13;;;;;;;;;;;8.50;45.10;;;6.93;50.60;101270.84;12270742;19;19923;-83
2023/03/17 07:23:19;;;;;;;;;;;8.50;45.90;;;6.99;50.68;101261.09;12268004;19;19918;-83
2023/03/17 07:27:24;;;;;;;;;;;8.60;45.60;;;7.00;50.82;101242.03;12266138;19;19932;-83
2023/03/17 07:31:25;;;;;;;;;;;8.60;45.40;;;7.16;50.80;101236.38;12268845;19;20016;-83
2023/03/17 07:35:27;;;;;;;;;;;8.70;45.90;;;7.15;50.90;101214.72;12268029;19;20399;-82
2023/03/17 07:39:28;;;;;;;;;;;8.80;45.90;;;7.29;50.91;101206.47;12269415;19;20308;-83
2023/03/17 07:43:30;;;;;;;;;;;8.90;45.20;;;7.37;50.72;101178.50;12270634;19;19930;-83
2023/03/17 07:47:32;;;;;;;;;;;8.90;45.60;;;7.43;50.72;101183.47;12262401;19;19917;-83
2023/03/17 07:51:34;;;;;;;;;;;9.00;45.30;;;7.55;50.88;101169.19;12263134;19;19967;-82
2023/03/17 07:55:37;;;;;;;;;;;9.40;44.70;;;7.69;50.59;101173.91;12262790;19;19931;-82
2023/03/17 07:59:42;;;;;;;;;;;9.50;45.40;;;7.91;50.78;101208.63;12265717;19;20349;-83
2023/03/17 08:03:43;;;;;;;;;;;9.40;45.10;;;7.89;50.78;101196.59;12267614;19;19922;-83
2023/03/17 08:07:46;;;;;;;;;;;9.50;45.00;;;8.09;50.77;101208.84;12265386;19;19915;-83
2023/03/17 08:11:48;;;;;;;;;;;9.60;44.50;;;8.12;50.73;101211.34;12265795;19;19915;-82
2023/03/17 08:15:51;;;;;;;;;;;9.70;45.30;;;8.23;50.78;101198.75;12263751;19;19970;-83
2023/03/17 08:19:54;;;;;;;;;;;9.80;45.10;;;8.33;50.61;101202.72;12265816;19;19915;-83
2023/03/17 08:23:56;;;;;;;;;;;9.90;43.70;;;8.37;50.43;101178.28;12267265;19;19943;-83
2023/03/17 08:27:58;;;;;;;;;;;10.10;41.40;;;8.71;50.53;101210.81;12261579;19;19919;-83
2023/03/17 08:32:00;;;;;;;;;;;10.20;43.00;;;8.68;50.54;101173.66;12265604;19;19911;-82
2023/03/17 08:36:08;;;;;;;;;;;10.40;43.30;;;9.09;50.25;101208.44;12274946;19;20388;-82
2023/03/17 08:40:15;;;;;;;;;;;10.50;42.20;;;9.18;50.45;101189.81;12277599;19;19918;-82
2023/03/17 08:44:18;;;;;;;;;;;10.70;42.30;;;9.16;50.32;101142.13;12278627;19;20272;-83
2023/03/17 08:48:20;;;;;;;;;;;10.90;42.40;;;9.53;50.39;101192.66;12273797;19;19911;-84
2023/03/17 08:52:22;;;;;;;;;;;11.00;43.40;;;9.53;50.31;101183.09;12272597;19;19958;-83
2023/03/17 08:56:24;;;;;;;;;;;11.20;43.30;;;9.84;50.34;101196.56;12270341;19;20270;-83
2023/03/17 09:00:25;;;;;;;;;;;11.30;43.30;;;9.98;50.39;101188.94;12276599;19;19914;-83
2023/03/17 09:04:27;;;;;;;;;;;11.50;43.50;;;9.98;50.27;101152.41;12272200;19;19923;-83
2023/03/17 09:08:28;;;;;;;;;;;11.70;40.80;;;9.92;50.03;101113.56;12269943;19;19919;-83
2023/03/17 09:12:31;;;;;;;;;;;11.80;41.90;;;10.26;50.12;101149.38;12274587;19;19926;-82
2023/03/17 09:16:33;;;;;;;;;;;11.90;43.40;;;10.43;50.21;101166.06;12273316;19;20002;-81
2023/03/17 09:20:35;;;;;;;;;;;12.00;42.10;;;10.46;50.06;101148.47;12276001;19;19945;-82
2023/03/17 09:24:36;;;;;;;;;;;12.00;41.60;;;10.56;49.98;101147.09;12273484;19;19926;-82
2023/03/17 09:28:38;;;;;;;;;;;12.10;43.80;;;10.68;50.16;101158.72;12270166;19;20349;-83
2023/03/17 09:32:41;;;;;;;;;;;12.20;44.20;;;10.77;49.99;101160.03;12270046;19;19919;-83
2023/03/17 09:36:43;;;;;;;;;;;12.30;43.80;;;10.83;49.89;101141.47;12270040;19;19932;-82
2023/03/17 09:40:52;;;;;;;;;;;12.40;41.80;;;10.95;50.04;101150.44;12272935;19;19915;-83
2023/03/17 09:45:18;;;;;;;;;;;12.50;43.00;;;11.06;49.78;101132.44;12270919;19;19923;-82
2023/03/17 09:49:24;;;;;;;;;;;12.60;42.20;;;11.11;49.96;101114.78;12270307;19;19918;-83
2023/03/17 09:53:32;;;;;;;;;;;12.90;43.70;;;11.29;49.73;101121.66;12266712;19;19907;-83
2023/03/17 09:57:36;;;;;;;;;;;12.80;42.50;;;11.47;49.88;101130.31;12267017;19;19922;-83
2023/03/17 10:01:40;;;;;;;;;;;12.90;42.20;;;11.56;49.80;101117.66;12269855;19;19938;-82
2023/03/17 10:05:42;;;;;;;;;;;13.10;42.60;;;11.70;49.64;101118.63;12267240;19;19959;-83
2023/03/17 10:09:50;;;;;;;;;;;13.20;41.00;;;11.95;49.69;101123.41;12268104;19;19919;-83
2023/03/17 10:13:52;;;;;;;;;;;13.50;42.80;;;12.11;49.71;101127.81;12265153;19;19919;-82
2023/03/17 10:17:54;;;;;;;;;;;13.60;43.20;;;12.19;49.76;101102.06;12265007;19;19919;-82
2023/03/17 10:22:01;;;;;;;;;;;13.80;41.60;;;12.37;49.74;101113.28;12264649;19;19937;-83
2023/03/17 10:26:16;;;;;;;;;;;13.90;41.40;;;12.51;49.70;101112.50;12263362;19;20138;-83
2023/03/17 10:30:20;;;;;;;;;;;14.10;42.90;;;12.60;49.59;101101.47;12264779;19;19911;-83
2023/03/17 10:34:31;;;;;;;;;;;14.20;42.00;;;12.70;49.51;101093.94;12265213;19;20426;-82
2023/03/17 10:38:33;;;;;;;;;;;14.30;42.20;;;12.92;49.41;101117.94;12259970;19;20471;-83
2023/03/17 10:42:44;;;;;;;;;;;14.40;41.50;;;12.87;49.48;101079.84;12266220;19;19918;-84
2023/03/17 10:46:55;;;;;;;;;;;14.50;39.50;;;13.14;49.36;101107.03;12261233;19;19967;-83
2023/03/17 10:50:57;;;;;;;;;;;14.70;42.40;;;13.20;49.38;101103.19;12264679;19;19919;-83
2023/03/17 10:55:06;;;;;;;;;;;14.80;42.90;;;13.18;49.37;101089.34;12275841;19;20324;-83
2023/03/17 10:59:19;;;;;;;;;;;14.80;41.20;;;13.04;49.34;101045.59;12270846;19;19923;-84
2023/03/17 11:03:41;;;;;;;;;;;14.90;40.70;;;13.46;49.27;101076.25;12267104;19;19910;-83
2023/03/17 11:07:44;;;;;;;;;;;15.00;42.20;;;13.28;49.14;101036.28;12262462;19;19923;-84
2023/03/17 11:12:00;;;;;;;;;;;15.10;41.50;;;13.48;49.13;101040.28;12263554;19;20339;-83
2023/03/17 11:16:17;;;;;;;;;;;15.20;39.00;;;13.71;49.15;101062.44;12260534;19;20329;-83
2023/03/17 11:20:23;;;;;;;;;;;15.30;42.50;;;13.70;48.88;101033.69;12262627;19;19927;-82
2023/03/17 11:24:31;;;;;;;;;;;15.40;39.70;;;13.88;48.74;101044.78;12262599;19;19923;-83
2023/03/17 11:28:39;;;;;;;;;;;15.40;39.30;;;14.03;48.43;101056.94;12259567;19;20336;-82
2023/03/17 11:33:06;;;;;;;;;;;15.50;37.70;;;14.03;48.50;101051.69;12261788;19;20282;-82
2023/03/17 11:37:11;;;;;;;;;;;15.60;42.20;;;14.02;48.31;101029.00;12257925;19;19926;-83
2023/03/17 11:41:22;;;;;;;;;;;15.70;41.40;;;14.26;48.41;101060.72;12259555;19;20156;-82
2023/03/17 11:45:32;;;;;;;;;;;15.70;43.10;;;14.30;48.40;101042.94;12261266;19;19923;-83
2023/03/17 11:49:38;;;;;;;;;;;15.80;39.50;;;14.42;48.26;101051.81;12259976;19;19906;-83
2023/03/17 11:53:55;;;;;;;;;;;15.90;40.30;;;14.46;48.14;101043.63;12267109;19;20232;-85
2023/03/17 11:57:57;;;;;;;;;;;15.90;40.30;;;14.52;48.29;101051.13;12267873;19;19922;-84
2023/03/17 12:02:29;;;;;;;;;;;16.00;41.90;;;14.64;48.26;101035.50;12270705;19;19914;-84
2023/03/17 12:06:34;;;;;;;;;;;16.10;42.10;;;14.65;48.14;101026.66;12268411;19;19915;-84
2023/03/17 12:10:40;;;;;;;;;;;16.20;42.00;;;14.62;48.37;100997.97;12265648;19;19911;-84
2023/03/17 12:14:51;;;;;;;;;;;16.20;40.80;;;14.78;48.37;101014.38;12268845;19;20308;-83
2023/03/17 12:19:05;;;;;;;;;;;16.30;41.10;;;14.93;48.29;101033.50;12266658;19;19915;-84
2023/03/17 12:23:16;;;;;;;;;;;16.40;41.60;;;14.91;47.99;101007.31;12262984;19;19915;-84
2023/03/17 12:27:29;;;;;;;;;;;16.50;40.40;;;15.05;47.86;101025.63;12263599;19;19915;-83
2023/03/17 12:31:34;;;;;;;;;;;16.50;40.80;;;15.03;47.62;101006.47;12261993;19;20264;-83
2023/03/17 12:35:37;;;;;;;;;;;16.50;39.30;;;14.95;47.61;100976.38;12261564;19;19923;-83
2023/03/17 12:39:41;;;;;;;;;;;16.60;40.50;;;15.12;47.49;101001.50;12261558;19;19930;-83
2023/03/17 12:44:01;;;;;;;;;;;16.60;40.20;;;15.31;47.77;101020.34;12260958;19;20265;-83
2023/03/17 12:48:20;;;;;;;;;;;16.70;41.30;;;15.32;47.66;101000.97;12260289;19;19919;-83
2023/03/17 12:52:43;;;;;;;;;;;16.80;40.20;;;15.39;47.72;100994.31;12257640;19;19959;-84
2023/03/17 12:56:46;;;;;;;;;;;16.90;39.90;;;15.37;47.42;100975.16;12254323;19;20364;-86
2023/03/17 13:01:14;;;;;;;;;;;16.90;40.50;;;15.58;47.46;100987.72;12258180;19;19918;-82
2023/03/17 13:05:27;;;;;;;;;;;17.00;40.00;;;15.57;47.44;100951.81;12257251;19;19915;-83
2023/03/17 13:09:31;;;;;;;;;;;17.00;39.90;;;15.68;46.99;100971.19;12255077;19;19911;-84
2023/03/17 13:14:05;;;;;;;;;;;17.10;38.50;;;15.73;47.29;100970.84;12255506;19;19918;-83
2023/03/17 13:18:12;;;;;;;;;;;17.10;40.90;;;15.76;47.03;100973.25;12255558;19;20336;-83
2023/03/17 13:22:20;;;;;;;;;;;17.20;40.00;;;15.78;47.15;100958.19;12270181;19;19911;-83
2023/03/17 13:26:53;;;;;;;;;;;17.20;36.10;;;15.80;46.86;100969.47;12266701;19;19955;-83
2023/03/17 13:31:13;;;;;;;;;;;17.20;38.00;;;15.85;46.90;100967.34;12267725;19;19911;-84
2023/03/17 13:35:17;;;;;;;;;;;17.20;39.40;;;15.78;46.78;100944.19;12266975;19;19919;-83
2023/03/17 13:40:01;;;;;;;;;;;17.20;38.00;;;15.88;46.71;100961.84;12266982;19;19979;-83
2023/03/17 13:44:22;;;;;;;;;;;17.20;40.60;;;15.85;46.58;100951.53;12264735;19;20426;-83
2023/03/17 13:48:31;;;;;;;;;;;17.30;38.20;;;15.89;46.56;100947.69;12259906;19;19938;-83
2023/03/17 13:52:37;;;;;;;;;;;17.30;38.50;;;15.90;46.52;100940.63;12263850;19;20442;-83
2023/03/17 13:56:39;;;;;;;;;;;17.30;37.90;;;15.98;46.35;100940.06;12268255;19;19958;-82
2023/03/17 14:00:43;;;;;;;;;;;17.30;38.10;;;15.88;46.41;100919.69;12276186;19;19978;-83
2023/03/17 14:05:01;;;;;;;;;;;17.30;39.10;;;15.98;46.33;100929.53;12268717;19;20264;-83
2023/03/17 14:09:16;;;;;;;;;;;17.40;36.00;;;15.97;45.97;100909.44;12266656;19;19962;-83
2023/03/17 14:13:33;;;;;;;;;;;17.40;35.20;;;16.08;45.91;100930.53;12264713;19;20346;-83
2023/03/17 14:17:57;;;;;;;;;;;17.40;35.50;;;16.01;45.85;100918.75;12263339;19;19971;-83
2023/03/17 14:22:16;;;;;;;;;;;17.40;38.90;;;16.11;45.88;100935.56;12266650;19;19915;-83
2023/03/17 14:26:18;;;;;;;;;;;17.40;38.00;;;16.07;46.14;100924.44;12266882;19;19918;-82
2023/03/17 14:30:25;;;;;;;;;;;17.40;39.30;;;16.10;45.82;100908.38;12290649;19;19926;-84
2023/03/17 14:34:27;;;;;;;;;;;17.50;38.00;;;16.12;45.98;100889.81;12307419;19;19943;-83
2023/03/17 14:38:36;;;;;;;;;;;17.50;38.30;;;16.05;45.92;100876.28;12305269;19;19919;-84
2023/03/17 14:42:37;;;;;;;;;;;17.60;40.60;;;16.20;45.76;100897.97;12308506;19;19915;-84
2023/03/17 14:46:40;;;;;;;;;;;17.60;36.80;;;16.26;45.64;100894.06;12304815;19;19939;-83
2023/03/17 14:50:58;;;;;;;;;;;17.60;39.20;;;16.20;45.67;100866.34;12294415;19;19922;-83
2023/03/17 14:55:00;;;;;;;;;;;17.60;38.80;;;16.29;45.78;100883.28;12291368;19;19931;-84
2023/03/17 14:59:27;;;;;;;;;;;17.70;37.00;;;16.36;45.65;100887.97;12291626;19;19918;-84
2023/03/17 15:03:31;;;;;;;;;;;17.70;38.70;;;16.38;45.67;100878.13;12291285;19;19923;-85
2023/03/17 15:07:41;;;;;;;;;;;17.70;40.40;;;16.35;45.72;100859.91;12288296;19;19965;-85
2023/03/17 15:11:43;;;;;;;;;;;17.70;39.90;;;16.31;45.82;100852.34;12286649;19;19911;-85
2023/03/17 15:15:44;;;;;;;;;;;17.70;38.90;;;16.27;45.70;100854.41;12283124;19;19914;-85
2023/03/17 15:19:48;;;;;;;;;;;17.70;40.00;;;16.39;45.57;100873.72;12284550;19;19936;-85
2023/03/17 15:23:50;;;;;;;;;;;17.70;40.50;;;16.31;45.83;100862.88;12282987;19;19907;-85
2023/03/17 15:27:52;;;;;;;;;;;17.70;37.90;;;16.41;45.59;100874.41;12280231;19;19926;-85
2023/03/17 15:32:10;;;;;;;;;;;17.70;38.50;;;16.31;45.69;100853.22;12281193;19;19955;-85
2023/03/17 15:36:16;;;;;;;;;;;17.70;37.80;;;16.36;45.33;100850.19;12277077;19;19910;-85
2023/03/17 15:40:17;;;;;;;;;;;17.70;39.60;;;16.11;45.46;100804.66;12280095;19;20356;-85
2023/03/17 15:44:19;;;;;;;;;;;17.70;39.90;;;16.21;45.44;100819.78;12276340;19;19935;-84
2023/03/17 15:48:24;;;;;;;;;;;17.70;40.40;;;16.37;45.50;100842.19;12275606;19;20340;-85
2023/03/17 15:52:26;;;;;;;;;;;17.70;40.80;;;16.38;45.50;100840.38;12275398;19;19914;-85
2023/03/17 15:56:28;;;;;;;;;;;17.70;41.20;;;16.36;45.39;100834.38;12276143;19;19915;-85
2023/03/17 16:00:31;;;;;;;;;;;17.70;40.90;;;16.29;45.43;100820.88;12269919;19;19922;-84
2023/03/17 16:04:33;;;;;;;;;;;17.60;39.30;;;16.29;45.27;100826.13;12271963;19;19944;-84
2023/03/17 16:08:36;;;;;;;;;;;17.60;40.60;;;16.21;45.43;100817.97;12270064;19;20261;-86
2023/03/17 16:12:38;;;;;;;;;;;17.60;40.70;;;16.29;45.39;100836.66;12271447;19;20312;-84
2023/03/17 16:16:42;;;;;;;;;;;17.50;41.00;;;16.19;45.49;100832.22;12270878;19;19936;-84
2023/03/17 16:20:48;;;;;;;;;;;17.60;39.80;;;16.21;45.13;100840.88;12271419;19;19915;-84
2023/03/17 16:24:50;;;;;;;;;;;17.60;40.90;;;16.10;45.29;100825.88;12268911;19;19929;-85
2023/03/17 16:28:52;;;;;;;;;;;17.50;39.90;;;16.08;45.19;100836.53;12269092;19;19916;-84
2023/03/17 16:33:00;;;;;;;;;;;17.50;40.50;;;16.09;45.16;100845.25;12259385;19;19919;-84
2023/03/17 16:37:03;;;;;;;;;;;17.40;40.80;;;16.01;45.42;100839.75;12264943;19;19925;-84
2023/03/17 16:41:19;;;;;;;;;;;17.30;41.00;;;16.08;45.25;100847.06;12268217;19;20379;-85
2023/03/17 16:45:25;;;;;;;;;;;17.30;40.90;;;16.05;45.36;100846.47;12266343;19;19979;-84
2023/03/17 16:49:27;;;;;;;;;;;17.30;41.50;;;15.75;45.01;100805.69;12267135;19;19915;-85
2023/03/17 16:53:29;;;;;;;;;;;17.20;41.40;;;15.97;45.14;100847.03;12266942;19;19919;-85
2023/03/17 16:57:32;;;;;;;;;;;17.20;41.30;;;15.84;45.01;100822.59;12272711;19;19918;-84
2023/03/17 17:01:33;;;;;;;;;;;17.10;41.40;;;15.53;45.18;100779.25;12282513;19;19919;-85
2023/03/17 17:05:35;;;;;;;;;;;17.10;41.30;;;15.83;45.08;100842.81;12276668;19;19915;-84
2023/03/17 17:09:36;;;;;;;;;;;17.10;41.60;;;15.77;45.09;100840.66;12279050;19;19915;-84
2023/03/17 17:13:41;;;;;;;;;;;17.00;41.70;;;15.68;45.09;100850.06;12275395;19;19934;-84
2023/03/17 17:17:46;;;;;;;;;;;16.90;41.80;;;15.61;45.08;100837.47;12277910;19;20270;-85
2023/03/17 17:21:47;;;;;;;;;;;16.90;42.00;;;15.47;45.13;100823.53;12284697;19;19915;-85
2023/03/17 17:25:50;;;;;;;;;;;16.80;41.60;;;15.45;45.04;100829.88;12280195;19;19955;-84
2023/03/17 17:29:51;;;;;;;;;;;16.70;41.90;;;15.41;44.92;100838.94;12274573;19;19919;-85
2023/03/17 17:33:52;;;;;;;;;;;16.60;42.00;;;15.34;44.89;100829.78;12271168;19;19932;-85
2023/03/17 17:37:54;;;;;;;;;;;16.60;42.00;;;15.28;44.87;100838.97;12271031;19;19956;-85
2023/03/17 17:41:55;;;;;;;;;;;16.50;42.20;;;15.18;45.22;100841.47;12273056;19;19930;-85
2023/03/17 17:45:57;;;;;;;;;;;16.40;42.20;;;14.87;45.07;100806.00;12274472;19;19944;-85
2023/03/17 17:49:58;;;;;;;;;;;16.20;42.10;;;15.01;44.91;100842.69;12275447;19;19922;-84
2023/03/17 17:54:00;;;;;;;;;;;16.20;42.10;;;14.87;44.89;100826.22;12268748;19;20317;-85
2023/03/17 17:58:01;;;;;;;;;;;16.10;42.20;;;14.75;44.90;100828.75;12269446;19;19918;-83
2023/03/17 18:02:03;;;;;;;;;;;16.00;41.90;;;14.78;45.01;100841.69;12270153;19;19917;-83
2023/03/17 18:06:04;;;;;;;;;;;15.90;42.20;;;14.75;44.98;100839.28;12266447;19;19915;-83
2023/03/17 18:10:06;;;;;;;;;;;15.90;42.20;;;14.69;45.10;100839.72;12263562;19;19919;-85
2023/03/17 18:14:08;;;;;;;;;;;15.80;42.00;;;14.56;45.06;100823.13;12255974;19;19946;-86
2023/03/17 18:18:10;;;;;;;;;;;15.80;42.00;;;14.64;44.98;100846.25;12265771;19;19907;-85
2023/03/17 18:22:11;;;;;;;;;;;15.80;41.70;;;14.45;44.92;100830.91;12268704;19;19931;-85
2023/03/17 18:26:15;;;;;;;;;;;15.70;42.20;;;14.50;44.96;100841.91;12263622;19;19914;-86
2023/03/17 18:30:25;;;;;;;;;;;15.70;42.00;;;14.25;45.09;100813.88;12269141;19;19919;-84
2023/03/17 18:34:30;;;;;;;;;;;15.60;42.30;;;14.33;45.00;100827.31;12264162;19;19914;-84
2023/03/17 18:38:32;;;;;;;;;;;15.60;42.30;;;14.26;44.77;100831.34;12258992;19;19927;-84